sensor_id;sensor_type;location;lat;lon;timestamp;P1;durP1;ratioP1;P2;durP2;ratioP2
13985;SDS011;7067;51.832;8.296;2022-08-20T00:00:28;19.42;;;17.38;;
13985;SDS011;7067;51.832;8.296;2022-08-20T00:02:56;17.40;;;15.77;;
13985;SDS011;7067;51.832;8.296;2022-08-20T00:05:25;16.33;;;14.35;;
13985;SDS011;7067;51.832;8.296;2022-08-20T00:07:56;15.20;;;13.70;;
13985;SDS011;7067;51.832;8.296;2022-08-20T00:10:23;13.88;;;12.48;;
13985;SDS011;7067;51.832;8.296;2022-08-20T00:12:49;13.85;;;12.32;;
13985;SDS011;7067;51.832;8.296;2022-08-20T00:15:15;12.77;;;11.55;;
13985;SDS011;7067;51.832;8.296;2022-08-20T00:17:43;13.02;;;11.73;;
13985;SDS011;7067;51.832;8.296;2022-08-20T00:20:10;11.80;;;10.85;;
13985;SDS011;7067;51.832;8.296;2022-08-20T00:22:36;13.65;;;12.40;;
13985;SDS011;7067;51.832;8.296;2022-08-20T00:25:06;13.20;;;11.68;;
13985;SDS011;7067;51.832;8.296;2022-08-20T00:27:32;12.73;;;11.45;;
13985;SDS011;7067;51.832;8.296;2022-08-20T00:29:57;11.90;;;10.80;;
13985;SDS011;7067;51.832;8.296;2022-08-20T00:32:23;12.07;;;10.88;;
13985;SDS011;7067;51.832;8.296;2022-08-20T00:34:48;11.27;;;10.07;;
13985;SDS011;7067;51.832;8.296;2022-08-20T00:37:14;9.88;;;8.95;;
13985;SDS011;7067;51.832;8.296;2022-08-20T00:39:39;9.95;;;9.02;;
13985;SDS011;7067;51.832;8.296;2022-08-20T00:42:05;10.70;;;9.77;;
13985;SDS011;7067;51.832;8.296;2022-08-20T00:44:30;9.68;;;8.88;;
13985;SDS011;7067;51.832;8.296;2022-08-20T00:46:56;9.98;;;9.13;;
13985;SDS011;7067;51.832;8.296;2022-08-20T00:49:25;10.45;;;9.50;;
13985;SDS011;7067;51.832;8.296;2022-08-20T00:51:57;11.77;;;10.32;;
13985;SDS011;7067;51.832;8.296;2022-08-20T00:54:30;10.82;;;9.82;;
13985;SDS011;7067;51.832;8.296;2022-08-20T00:57:45;11.48;;;10.32;;
13985;SDS011;7067;51.832;8.296;2022-08-20T00:59:50;10.18;;;9.40;;
13985;SDS011;7067;51.832;8.296;2022-08-20T01:02:17;10.20;;;9.27;;
13985;SDS011;7067;51.832;8.296;2022-08-20T01:04:43;10.13;;;9.32;;
13985;SDS011;7067;51.832;8.296;2022-08-20T01:07:17;10.73;;;9.85;;
13985;SDS011;7067;51.832;8.296;2022-08-20T01:09:44;11.70;;;10.55;;
13985;SDS011;7067;51.832;8.296;2022-08-20T01:12:10;12.55;;;11.45;;
13985;SDS011;7067;51.832;8.296;2022-08-20T01:14:37;13.48;;;12.27;;
13985;SDS011;7067;51.832;8.296;2022-08-20T01:17:09;12.82;;;11.70;;
13985;SDS011;7067;51.832;8.296;2022-08-20T01:19:38;14.70;;;12.27;;
13985;SDS011;7067;51.832;8.296;2022-08-20T01:22:06;15.75;;;12.55;;
13985;SDS011;7067;51.832;8.296;2022-08-20T01:24:57;14.07;;;12.73;;
13985;SDS011;7067;51.832;8.296;2022-08-20T01:27:29;15.25;;;13.10;;
13985;SDS011;7067;51.832;8.296;2022-08-20T01:29:55;14.75;;;13.32;;
13985;SDS011;7067;51.832;8.296;2022-08-20T01:32:20;15.05;;;13.45;;
13985;SDS011;7067;51.832;8.296;2022-08-20T01:34:46;15.82;;;14.27;;
13985;SDS011;7067;51.832;8.296;2022-08-20T01:37:11;15.90;;;14.45;;
13985;SDS011;7067;51.832;8.296;2022-08-20T01:39:36;16.95;;;15.15;;
13985;SDS011;7067;51.832;8.296;2022-08-20T01:44:37;16.02;;;14.45;;
13985;SDS011;7067;51.832;8.296;2022-08-20T01:49:57;17.13;;;15.52;;
13985;SDS011;7067;51.832;8.296;2022-08-20T01:55:09;16.67;;;15.02;;
13985;SDS011;7067;51.832;8.296;2022-08-20T01:57:34;15.60;;;14.02;;
13985;SDS011;7067;51.832;8.296;2022-08-20T02:00:01;17.40;;;15.70;;
13985;SDS011;7067;51.832;8.296;2022-08-20T02:02:32;16.35;;;14.57;;
13985;SDS011;7067;51.832;8.296;2022-08-20T02:04:58;17.42;;;15.38;;
13985;SDS011;7067;51.832;8.296;2022-08-20T02:07:24;18.33;;;16.52;;
13985;SDS011;7067;51.832;8.296;2022-08-20T02:09:50;16.08;;;14.52;;
13985;SDS011;7067;51.832;8.296;2022-08-20T02:12:15;19.35;;;17.08;;
13985;SDS011;7067;51.832;8.296;2022-08-20T02:14:45;18.92;;;17.02;;
13985;SDS011;7067;51.832;8.296;2022-08-20T02:17:13;20.30;;;17.90;;
13985;SDS011;7067;51.832;8.296;2022-08-20T02:19:40;19.17;;;17.05;;
13985;SDS011;7067;51.832;8.296;2022-08-20T02:22:11;21.77;;;17.27;;
13985;SDS011;7067;51.832;8.296;2022-08-20T02:24:41;18.90;;;16.90;;
13985;SDS011;7067;51.832;8.296;2022-08-20T02:27:07;18.33;;;16.40;;
13985;SDS011;7067;51.832;8.296;2022-08-20T02:29:32;19.00;;;17.17;;
13985;SDS011;7067;51.832;8.296;2022-08-20T02:31:58;23.70;;;17.80;;
13985;SDS011;7067;51.832;8.296;2022-08-20T02:34:23;19.38;;;16.90;;
13985;SDS011;7067;51.832;8.296;2022-08-20T02:36:49;20.45;;;18.27;;
13985;SDS011;7067;51.832;8.296;2022-08-20T02:39:14;24.75;;;19.15;;
13985;SDS011;7067;51.832;8.296;2022-08-20T02:41:40;24.13;;;20.35;;
13985;SDS011;7067;51.832;8.296;2022-08-20T02:44:06;26.38;;;20.48;;
13985;SDS011;7067;51.832;8.296;2022-08-20T02:46:32;27.92;;;21.17;;
13985;SDS011;7067;51.832;8.296;2022-08-20T02:48:58;23.90;;;19.73;;
13985;SDS011;7067;51.832;8.296;2022-08-20T02:51:23;25.85;;;20.58;;
13985;SDS011;7067;51.832;8.296;2022-08-20T02:53:49;27.33;;;20.77;;
13985;SDS011;7067;51.832;8.296;2022-08-20T02:56:15;23.77;;;20.20;;
13985;SDS011;7067;51.832;8.296;2022-08-20T02:58:41;27.30;;;20.20;;
13985;SDS011;7067;51.832;8.296;2022-08-20T03:01:08;20.80;;;18.58;;
13985;SDS011;7067;51.832;8.296;2022-08-20T03:03:36;21.52;;;17.88;;
13985;SDS011;7067;51.832;8.296;2022-08-20T03:06:02;24.00;;;18.63;;
13985;SDS011;7067;51.832;8.296;2022-08-20T03:08:28;20.05;;;17.85;;
13985;SDS011;7067;51.832;8.296;2022-08-20T03:10:54;21.23;;;18.73;;
13985;SDS011;7067;51.832;8.296;2022-08-20T03:13:20;25.17;;;20.73;;
13985;SDS011;7067;51.832;8.296;2022-08-20T03:15:51;22.05;;;19.58;;
13985;SDS011;7067;51.832;8.296;2022-08-20T03:18:18;23.42;;;18.65;;
13985;SDS011;7067;51.832;8.296;2022-08-20T03:20:44;22.88;;;19.50;;
13985;SDS011;7067;51.832;8.296;2022-08-20T03:23:10;21.65;;;18.45;;
13985;SDS011;7067;51.832;8.296;2022-08-20T03:25:36;25.85;;;19.85;;
13985;SDS011;7067;51.832;8.296;2022-08-20T03:28:01;23.08;;;18.17;;
13985;SDS011;7067;51.832;8.296;2022-08-20T03:30:27;24.10;;;19.65;;
13985;SDS011;7067;51.832;8.296;2022-08-20T03:32:53;23.30;;;19.27;;
13985;SDS011;7067;51.832;8.296;2022-08-20T03:35:19;22.23;;;18.65;;
13985;SDS011;7067;51.832;8.296;2022-08-20T03:37:46;21.33;;;17.63;;
13985;SDS011;7067;51.832;8.296;2022-08-20T03:40:14;21.27;;;16.92;;
13985;SDS011;7067;51.832;8.296;2022-08-20T03:42:41;18.40;;;16.25;;
13985;SDS011;7067;51.832;8.296;2022-08-20T03:45:07;19.58;;;16.58;;
13985;SDS011;7067;51.832;8.296;2022-08-20T03:47:34;18.23;;;15.20;;
13985;SDS011;7067;51.832;8.296;2022-08-20T03:50:00;16.13;;;14.32;;
13985;SDS011;7067;51.832;8.296;2022-08-20T03:52:26;15.80;;;14.13;;
13985;SDS011;7067;51.832;8.296;2022-08-20T03:54:53;17.73;;;15.93;;
13985;SDS011;7067;51.832;8.296;2022-08-20T03:57:19;18.95;;;13.35;;
13985;SDS011;7067;51.832;8.296;2022-08-20T03:59:45;13.77;;;12.30;;
13985;SDS011;7067;51.832;8.296;2022-08-20T04:02:11;12.48;;;11.30;;
13985;SDS011;7067;51.832;8.296;2022-08-20T04:04:37;11.98;;;10.88;;
13985;SDS011;7067;51.832;8.296;2022-08-20T04:07:11;12.85;;;11.57;;
13985;SDS011;7067;51.832;8.296;2022-08-20T04:09:38;12.40;;;11.15;;
13985;SDS011;7067;51.832;8.296;2022-08-20T04:12:04;12.90;;;11.70;;
13985;SDS011;7067;51.832;8.296;2022-08-20T04:14:31;12.23;;;10.93;;
13985;SDS011;7067;51.832;8.296;2022-08-20T04:16:56;12.68;;;11.43;;
13985;SDS011;7067;51.832;8.296;2022-08-20T04:19:22;12.45;;;11.18;;
13985;SDS011;7067;51.832;8.296;2022-08-20T04:21:47;11.93;;;10.70;;
13985;SDS011;7067;51.832;8.296;2022-08-20T04:24:13;11.82;;;10.63;;
13985;SDS011;7067;51.832;8.296;2022-08-20T04:26:40;11.45;;;10.35;;
13985;SDS011;7067;51.832;8.296;2022-08-20T04:29:06;14.18;;;10.15;;
13985;SDS011;7067;51.832;8.296;2022-08-20T04:31:31;10.85;;;9.85;;
13985;SDS011;7067;51.832;8.296;2022-08-20T04:34:00;11.02;;;9.93;;
13985;SDS011;7067;51.832;8.296;2022-08-20T04:36:26;11.73;;;10.57;;
13985;SDS011;7067;51.832;8.296;2022-08-20T04:38:52;11.93;;;10.70;;
13985;SDS011;7067;51.832;8.296;2022-08-20T04:41:18;11.65;;;10.55;;
13985;SDS011;7067;51.832;8.296;2022-08-20T04:43:44;11.30;;;10.20;;
13985;SDS011;7067;51.832;8.296;2022-08-20T04:46:09;11.70;;;10.57;;
13985;SDS011;7067;51.832;8.296;2022-08-20T04:48:35;9.77;;;8.98;;
13985;SDS011;7067;51.832;8.296;2022-08-20T04:51:03;13.07;;;11.20;;
13985;SDS011;7067;51.832;8.296;2022-08-20T04:53:29;11.68;;;10.48;;
13985;SDS011;7067;51.832;8.296;2022-08-20T04:55:55;12.90;;;11.00;;
13985;SDS011;7067;51.832;8.296;2022-08-20T04:58:25;11.98;;;10.43;;
13985;SDS011;7067;51.832;8.296;2022-08-20T05:00:59;11.93;;;10.73;;
13985;SDS011;7067;51.832;8.296;2022-08-20T05:03:28;13.02;;;11.50;;
13985;SDS011;7067;51.832;8.296;2022-08-20T05:05:54;13.23;;;10.93;;
13985;SDS011;7067;51.832;8.296;2022-08-20T05:08:20;12.10;;;10.75;;
13985;SDS011;7067;51.832;8.296;2022-08-20T05:10:50;13.27;;;11.23;;
13985;SDS011;7067;51.832;8.296;2022-08-20T05:13:16;12.50;;;10.77;;
13985;SDS011;7067;51.832;8.296;2022-08-20T05:15:42;11.70;;;10.63;;
13985;SDS011;7067;51.832;8.296;2022-08-20T05:18:10;10.93;;;9.82;;
13985;SDS011;7067;51.832;8.296;2022-08-20T05:20:38;12.23;;;11.13;;
13985;SDS011;7067;51.832;8.296;2022-08-20T05:23:06;12.63;;;10.30;;
13985;SDS011;7067;51.832;8.296;2022-08-20T05:25:35;12.15;;;10.98;;
13985;SDS011;7067;51.832;8.296;2022-08-20T05:28:06;13.85;;;12.52;;
13985;SDS011;7067;51.832;8.296;2022-08-20T05:30:33;15.40;;;13.23;;
13985;SDS011;7067;51.832;8.296;2022-08-20T05:33:06;13.93;;;12.52;;
13985;SDS011;7067;51.832;8.296;2022-08-20T05:35:33;13.65;;;12.35;;
13985;SDS011;7067;51.832;8.296;2022-08-20T05:38:02;15.07;;;13.68;;
13985;SDS011;7067;51.832;8.296;2022-08-20T05:40:29;14.60;;;13.15;;
13985;SDS011;7067;51.832;8.296;2022-08-20T05:42:54;15.30;;;13.77;;
13985;SDS011;7067;51.832;8.296;2022-08-20T05:45:19;15.65;;;14.13;;
13985;SDS011;7067;51.832;8.296;2022-08-20T05:47:45;16.05;;;14.48;;
13985;SDS011;7067;51.832;8.296;2022-08-20T05:50:13;16.83;;;15.15;;
13985;SDS011;7067;51.832;8.296;2022-08-20T05:52:39;15.15;;;13.77;;
13985;SDS011;7067;51.832;8.296;2022-08-20T05:55:06;16.50;;;14.80;;
13985;SDS011;7067;51.832;8.296;2022-08-20T05:57:33;16.10;;;14.52;;
13985;SDS011;7067;51.832;8.296;2022-08-20T06:00:00;16.75;;;15.18;;
13985;SDS011;7067;51.832;8.296;2022-08-20T06:02:27;16.77;;;15.07;;
13985;SDS011;7067;51.832;8.296;2022-08-20T06:05:11;17.02;;;15.23;;
13985;SDS011;7067;51.832;8.296;2022-08-20T06:07:36;16.05;;;14.40;;
13985;SDS011;7067;51.832;8.296;2022-08-20T06:10:03;16.58;;;14.93;;
13985;SDS011;7067;51.832;8.296;2022-08-20T06:12:28;18.45;;;15.52;;
13985;SDS011;7067;51.832;8.296;2022-08-20T06:14:53;15.57;;;14.07;;
13985;SDS011;7067;51.832;8.296;2022-08-20T06:17:19;17.13;;;15.52;;
13985;SDS011;7067;51.832;8.296;2022-08-20T06:19:45;16.85;;;15.15;;
13985;SDS011;7067;51.832;8.296;2022-08-20T06:22:11;16.85;;;15.15;;
13985;SDS011;7067;51.832;8.296;2022-08-20T06:24:37;17.38;;;15.57;;
13985;SDS011;7067;51.832;8.296;2022-08-20T06:27:03;17.15;;;15.43;;
13985;SDS011;7067;51.832;8.296;2022-08-20T06:29:29;16.92;;;15.07;;
13985;SDS011;7067;51.832;8.296;2022-08-20T06:31:57;16.48;;;14.98;;
13985;SDS011;7067;51.832;8.296;2022-08-20T06:34:23;17.15;;;15.52;;
13985;SDS011;7067;51.832;8.296;2022-08-20T06:36:52;17.50;;;15.87;;
13985;SDS011;7067;51.832;8.296;2022-08-20T06:39:21;15.70;;;14.17;;
13985;SDS011;7067;51.832;8.296;2022-08-20T06:41:46;15.48;;;13.85;;
13985;SDS011;7067;51.832;8.296;2022-08-20T06:44:12;15.70;;;14.23;;
13985;SDS011;7067;51.832;8.296;2022-08-20T06:46:38;14.15;;;12.68;;
13985;SDS011;7067;51.832;8.296;2022-08-20T06:49:04;14.77;;;13.45;;
13985;SDS011;7067;51.832;8.296;2022-08-20T06:51:30;14.57;;;13.15;;
13985;SDS011;7067;51.832;8.296;2022-08-20T06:53:56;14.70;;;13.50;;
13985;SDS011;7067;51.832;8.296;2022-08-20T06:56:21;13.95;;;12.40;;
13985;SDS011;7067;51.832;8.296;2022-08-20T06:58:47;13.52;;;12.40;;
13985;SDS011;7067;51.832;8.296;2022-08-20T07:01:13;13.38;;;12.07;;
13985;SDS011;7067;51.832;8.296;2022-08-20T07:03:39;9.32;;;8.52;;
13985;SDS011;7067;51.832;8.296;2022-08-20T07:06:05;5.72;;;5.35;;
13985;SDS011;7067;51.832;8.296;2022-08-20T07:08:32;7.63;;;6.93;;
13985;SDS011;7067;51.832;8.296;2022-08-20T07:10:59;7.72;;;7.03;;
13985;SDS011;7067;51.832;8.296;2022-08-20T07:13:25;6.55;;;6.05;;
13985;SDS011;7067;51.832;8.296;2022-08-20T07:15:51;6.43;;;5.85;;
13985;SDS011;7067;51.832;8.296;2022-08-20T07:18:16;6.68;;;6.13;;
13985;SDS011;7067;51.832;8.296;2022-08-20T07:20:42;6.25;;;5.75;;
13985;SDS011;7067;51.832;8.296;2022-08-20T07:23:08;7.75;;;7.05;;
13985;SDS011;7067;51.832;8.296;2022-08-20T07:25:36;8.57;;;7.78;;
13985;SDS011;7067;51.832;8.296;2022-08-20T07:28:04;8.75;;;8.15;;
13985;SDS011;7067;51.832;8.296;2022-08-20T07:30:31;8.82;;;8.15;;
13985;SDS011;7067;51.832;8.296;2022-08-20T07:33:15;8.93;;;8.02;;
13985;SDS011;7067;51.832;8.296;2022-08-20T07:35:41;7.85;;;7.25;;
13985;SDS011;7067;51.832;8.296;2022-08-20T07:38:12;7.80;;;7.20;;
13985;SDS011;7067;51.832;8.296;2022-08-20T07:40:39;8.02;;;7.43;;
13985;SDS011;7067;51.832;8.296;2022-08-20T07:43:05;7.53;;;6.82;;
13985;SDS011;7067;51.832;8.296;2022-08-20T07:45:30;8.45;;;7.72;;
13985;SDS011;7067;51.832;8.296;2022-08-20T07:48:04;9.20;;;7.78;;
13985;SDS011;7067;51.832;8.296;2022-08-20T07:53:01;8.05;;;7.38;;
13985;SDS011;7067;51.832;8.296;2022-08-20T07:55:27;7.18;;;6.68;;
13985;SDS011;7067;51.832;8.296;2022-08-20T07:57:52;6.60;;;6.10;;
13985;SDS011;7067;51.832;8.296;2022-08-20T08:00:19;6.60;;;6.00;;
13985;SDS011;7067;51.832;8.296;2022-08-20T08:02:46;6.20;;;5.43;;
13985;SDS011;7067;51.832;8.296;2022-08-20T08:05:11;5.70;;;5.30;;
13985;SDS011;7067;51.832;8.296;2022-08-20T08:07:37;6.45;;;5.85;;
13985;SDS011;7067;51.832;8.296;2022-08-20T08:10:04;6.30;;;5.80;;
13985;SDS011;7067;51.832;8.296;2022-08-20T08:12:35;6.05;;;5.55;;
13985;SDS011;7067;51.832;8.296;2022-08-20T08:15:03;6.25;;;5.85;;
13985;SDS011;7067;51.832;8.296;2022-08-20T08:17:29;6.90;;;6.40;;
13985;SDS011;7067;51.832;8.296;2022-08-20T08:19:55;6.70;;;6.10;;
13985;SDS011;7067;51.832;8.296;2022-08-20T08:22:21;6.25;;;5.85;;
13985;SDS011;7067;51.832;8.296;2022-08-20T08:24:47;5.72;;;4.72;;
13985;SDS011;7067;51.832;8.296;2022-08-20T08:27:12;4.50;;;4.20;;
13985;SDS011;7067;51.832;8.296;2022-08-20T08:29:42;5.70;;;5.30;;
13985;SDS011;7067;51.832;8.296;2022-08-20T08:32:07;5.85;;;5.55;;
13985;SDS011;7067;51.832;8.296;2022-08-20T08:34:34;7.53;;;6.82;;
13985;SDS011;7067;51.832;8.296;2022-08-20T08:37:00;5.82;;;5.38;;
13985;SDS011;7067;51.832;8.296;2022-08-20T08:39:29;7.00;;;6.40;;
13985;SDS011;7067;51.832;8.296;2022-08-20T08:41:56;6.47;;;5.88;;
13985;SDS011;7067;51.832;8.296;2022-08-20T08:44:30;5.80;;;5.50;;
13985;SDS011;7067;51.832;8.296;2022-08-20T08:47:00;6.50;;;6.05;;
13985;SDS011;7067;51.832;8.296;2022-08-20T08:49:42;4.15;;;3.85;;
13985;SDS011;7067;51.832;8.296;2022-08-20T08:52:11;4.38;;;4.05;;
13985;SDS011;7067;51.832;8.296;2022-08-20T08:54:46;4.25;;;3.95;;
13985;SDS011;7067;51.832;8.296;2022-08-20T08:57:13;4.72;;;3.45;;
13985;SDS011;7067;51.832;8.296;2022-08-20T08:59:39;3.72;;;3.47;;
13985;SDS011;7067;51.832;8.296;2022-08-20T09:02:05;3.60;;;3.40;;
13985;SDS011;7067;51.832;8.296;2022-08-20T09:04:32;3.95;;;3.65;;
13985;SDS011;7067;51.832;8.296;2022-08-20T09:07:01;2.53;;;2.33;;
13985;SDS011;7067;51.832;8.296;2022-08-20T09:09:29;3.20;;;3.00;;
13985;SDS011;7067;51.832;8.296;2022-08-20T09:12:00;4.20;;;3.90;;
13985;SDS011;7067;51.832;8.296;2022-08-20T09:14:31;6.45;;;4.82;;
13985;SDS011;7067;51.832;8.296;2022-08-20T09:16:56;5.45;;;5.05;;
13985;SDS011;7067;51.832;8.296;2022-08-20T09:19:22;5.78;;;5.28;;
13985;SDS011;7067;51.832;8.296;2022-08-20T09:21:47;5.40;;;5.00;;
13985;SDS011;7067;51.832;8.296;2022-08-20T09:24:13;6.10;;;5.47;;
13985;SDS011;7067;51.832;8.296;2022-08-20T09:26:39;5.22;;;4.90;;
13985;SDS011;7067;51.832;8.296;2022-08-20T09:29:04;5.50;;;5.10;;
13985;SDS011;7067;51.832;8.296;2022-08-20T09:31:29;6.15;;;5.22;;
13985;SDS011;7067;51.832;8.296;2022-08-20T09:33:55;5.38;;;4.97;;
13985;SDS011;7067;51.832;8.296;2022-08-20T09:36:20;6.68;;;6.18;;
13985;SDS011;7067;51.832;8.296;2022-08-20T09:38:45;6.85;;;6.20;;
13985;SDS011;7067;51.832;8.296;2022-08-20T09:41:11;7.90;;;7.30;;
13985;SDS011;7067;51.832;8.296;2022-08-20T09:43:36;7.38;;;6.82;;
13985;SDS011;7067;51.832;8.296;2022-08-20T09:46:02;8.98;;;8.38;;
13985;SDS011;7067;51.832;8.296;2022-08-20T09:48:27;9.02;;;8.32;;
13985;SDS011;7067;51.832;8.296;2022-08-20T09:50:52;9.70;;;9.00;;
13985;SDS011;7067;51.832;8.296;2022-08-20T09:53:18;8.45;;;7.85;;
13985;SDS011;7067;51.832;8.296;2022-08-20T09:55:45;11.15;;;10.32;;
13985;SDS011;7067;51.832;8.296;2022-08-20T09:58:20;10.57;;;9.88;;
13985;SDS011;7067;51.832;8.296;2022-08-20T10:00:47;10.23;;;9.32;;
13985;SDS011;7067;51.832;8.296;2022-08-20T10:03:13;10.57;;;9.88;;
13985;SDS011;7067;51.832;8.296;2022-08-20T10:05:38;11.00;;;10.05;;
13985;SDS011;7067;51.832;8.296;2022-08-20T10:08:05;11.60;;;10.50;;
13985;SDS011;7067;51.832;8.296;2022-08-20T10:10:31;11.82;;;10.85;;
13985;SDS011;7067;51.832;8.296;2022-08-20T10:12:57;12.02;;;11.02;;
13985;SDS011;7067;51.832;8.296;2022-08-20T10:15:22;12.90;;;11.65;;
13985;SDS011;7067;51.832;8.296;2022-08-20T10:17:47;12.20;;;11.02;;
13985;SDS011;7067;51.832;8.296;2022-08-20T10:20:13;13.80;;;12.60;;
13985;SDS011;7067;51.832;8.296;2022-08-20T10:22:39;12.80;;;11.68;;
13985;SDS011;7067;51.832;8.296;2022-08-20T10:25:05;13.93;;;11.88;;
13985;SDS011;7067;51.832;8.296;2022-08-20T10:27:31;13.00;;;11.90;;
13985;SDS011;7067;51.832;8.296;2022-08-20T10:29:57;13.38;;;12.25;;
13985;SDS011;7067;51.832;8.296;2022-08-20T10:32:23;11.63;;;10.48;;
13985;SDS011;7067;51.832;8.296;2022-08-20T10:34:48;9.43;;;8.52;;
13985;SDS011;7067;51.832;8.296;2022-08-20T10:37:15;7.47;;;7.03;;
13985;SDS011;7067;51.832;8.296;2022-08-20T10:39:42;8.48;;;7.78;;
13985;SDS011;7067;51.832;8.296;2022-08-20T10:42:08;7.18;;;6.60;;
13985;SDS011;7067;51.832;8.296;2022-08-20T10:44:34;7.38;;;6.75;;
13985;SDS011;7067;51.832;8.296;2022-08-20T10:47:11;7.05;;;6.55;;
13985;SDS011;7067;51.832;8.296;2022-08-20T10:49:48;6.57;;;5.93;;
13985;SDS011;7067;51.832;8.296;2022-08-20T10:52:14;5.38;;;5.00;;
13985;SDS011;7067;51.832;8.296;2022-08-20T10:54:40;5.95;;;5.55;;
13985;SDS011;7067;51.832;8.296;2022-08-20T10:57:06;5.70;;;5.20;;
13985;SDS011;7067;51.832;8.296;2022-08-20T10:59:36;5.40;;;4.93;;
13985;SDS011;7067;51.832;8.296;2022-08-20T11:02:02;5.20;;;4.80;;
13985;SDS011;7067;51.832;8.296;2022-08-20T11:04:27;5.40;;;5.00;;
13985;SDS011;7067;51.832;8.296;2022-08-20T11:06:53;5.05;;;4.75;;
13985;SDS011;7067;51.832;8.296;2022-08-20T11:09:18;4.95;;;4.65;;
13985;SDS011;7067;51.832;8.296;2022-08-20T11:11:44;4.60;;;4.20;;
13985;SDS011;7067;51.832;8.296;2022-08-20T11:14:09;4.63;;;4.32;;
13985;SDS011;7067;51.832;8.296;2022-08-20T11:16:34;4.80;;;3.47;;
13985;SDS011;7067;51.832;8.296;2022-08-20T11:19:00;4.13;;;3.83;;
13985;SDS011;7067;51.832;8.296;2022-08-20T11:21:25;4.63;;;4.22;;
13985;SDS011;7067;51.832;8.296;2022-08-20T11:23:50;4.05;;;3.75;;
13985;SDS011;7067;51.832;8.296;2022-08-20T11:26:18;5.15;;;2.83;;
13985;SDS011;7067;51.832;8.296;2022-08-20T11:28:46;2.95;;;2.80;;
13985;SDS011;7067;51.832;8.296;2022-08-20T11:31:11;3.40;;;3.10;;
13985;SDS011;7067;51.832;8.296;2022-08-20T11:33:36;3.53;;;3.33;;
13985;SDS011;7067;51.832;8.296;2022-08-20T11:36:02;3.90;;;3.60;;
13985;SDS011;7067;51.832;8.296;2022-08-20T11:38:27;4.28;;;3.42;;
13985;SDS011;7067;51.832;8.296;2022-08-20T11:40:53;4.50;;;4.20;;
13985;SDS011;7067;51.832;8.296;2022-08-20T11:43:18;3.75;;;3.45;;
13985;SDS011;7067;51.832;8.296;2022-08-20T11:45:44;5.57;;;4.22;;
13985;SDS011;7067;51.832;8.296;2022-08-20T11:48:16;3.78;;;3.50;;
13985;SDS011;7067;51.832;8.296;2022-08-20T11:50:42;4.78;;;4.47;;
13985;SDS011;7067;51.832;8.296;2022-08-20T11:53:08;3.67;;;3.38;;
13985;SDS011;7067;51.832;8.296;2022-08-20T11:55:34;4.30;;;3.90;;
13985;SDS011;7067;51.832;8.296;2022-08-20T11:58:00;4.35;;;3.45;;
13985;SDS011;7067;51.832;8.296;2022-08-20T12:00:26;3.83;;;3.47;;
13985;SDS011;7067;51.832;8.296;2022-08-20T12:02:52;4.72;;;3.65;;
13985;SDS011;7067;51.832;8.296;2022-08-20T12:05:17;3.50;;;3.20;;
13985;SDS011;7067;51.832;8.296;2022-08-20T12:07:43;4.15;;;3.75;;
13985;SDS011;7067;51.832;8.296;2022-08-20T12:10:08;3.60;;;3.30;;
13985;SDS011;7067;51.832;8.296;2022-08-20T12:12:34;4.05;;;3.65;;
13985;SDS011;7067;51.832;8.296;2022-08-20T12:15:00;4.72;;;4.32;;
13985;SDS011;7067;51.832;8.296;2022-08-20T12:17:26;3.47;;;3.17;;
13985;SDS011;7067;51.832;8.296;2022-08-20T12:19:55;4.47;;;4.07;;
13985;SDS011;7067;51.832;8.296;2022-08-20T12:22:22;4.90;;;4.50;;
13985;SDS011;7067;51.832;8.296;2022-08-20T12:24:48;10.23;;;4.72;;
13985;SDS011;7067;51.832;8.296;2022-08-20T12:27:17;5.97;;;4.93;;
13985;SDS011;7067;51.832;8.296;2022-08-20T12:29:46;7.05;;;6.45;;
13985;SDS011;7067;51.832;8.296;2022-08-20T12:32:12;6.70;;;4.68;;
13985;SDS011;7067;51.832;8.296;2022-08-20T12:34:39;5.38;;;3.63;;
13985;SDS011;7067;51.832;8.296;2022-08-20T12:37:09;4.18;;;3.88;;
13985;SDS011;7067;51.832;8.296;2022-08-20T12:39:40;3.42;;;3.13;;
13985;SDS011;7067;51.832;8.296;2022-08-20T12:42:07;4.40;;;2.60;;
13985;SDS011;7067;51.832;8.296;2022-08-20T12:44:33;4.55;;;4.05;;
13985;SDS011;7067;51.832;8.296;2022-08-20T12:49:38;3.80;;;3.50;;
13985;SDS011;7067;51.832;8.296;2022-08-20T12:52:05;4.03;;;3.70;;
13985;SDS011;7067;51.832;8.296;2022-08-20T12:54:31;4.00;;;3.47;;
13985;SDS011;7067;51.832;8.296;2022-08-20T12:56:56;3.80;;;3.35;;
13985;SDS011;7067;51.832;8.296;2022-08-20T12:59:22;4.50;;;3.22;;
13985;SDS011;7067;51.832;8.296;2022-08-20T13:01:49;3.33;;;2.95;;
13985;SDS011;7067;51.832;8.296;2022-08-20T13:04:15;5.93;;;3.60;;
13985;SDS011;7067;51.832;8.296;2022-08-20T13:06:40;4.22;;;3.70;;
13985;SDS011;7067;51.832;8.296;2022-08-20T13:09:05;3.33;;;3.00;;
13985;SDS011;7067;51.832;8.296;2022-08-20T13:11:31;4.78;;;3.30;;
13985;SDS011;7067;51.832;8.296;2022-08-20T13:13:57;3.92;;;3.45;;
13985;SDS011;7067;51.832;8.296;2022-08-20T13:16:22;3.97;;;3.67;;
13985;SDS011;7067;51.832;8.296;2022-08-20T13:18:48;8.40;;;4.10;;
13985;SDS011;7067;51.832;8.296;2022-08-20T13:21:13;3.65;;;3.42;;
13985;SDS011;7067;51.832;8.296;2022-08-20T13:23:39;3.53;;;3.30;;
13985;SDS011;7067;51.832;8.296;2022-08-20T13:26:05;3.60;;;3.20;;
13985;SDS011;7067;51.832;8.296;2022-08-20T13:28:30;3.10;;;2.90;;
13985;SDS011;7067;51.832;8.296;2022-08-20T13:30:56;4.47;;;4.07;;
13985;SDS011;7067;51.832;8.296;2022-08-20T13:33:22;4.07;;;3.65;;
13985;SDS011;7067;51.832;8.296;2022-08-20T13:35:50;4.18;;;3.83;;
13985;SDS011;7067;51.832;8.296;2022-08-20T13:38:15;5.78;;;3.80;;
13985;SDS011;7067;51.832;8.296;2022-08-20T13:40:41;3.97;;;3.40;;
13985;SDS011;7067;51.832;8.296;2022-08-20T13:43:06;3.30;;;3.03;;
13985;SDS011;7067;51.832;8.296;2022-08-20T13:45:31;5.30;;;3.35;;
13985;SDS011;7067;51.832;8.296;2022-08-20T13:47:57;3.00;;;2.80;;
13985;SDS011;7067;51.832;8.296;2022-08-20T13:50:23;3.20;;;2.90;;
13985;SDS011;7067;51.832;8.296;2022-08-20T13:52:49;4.30;;;3.55;;
13985;SDS011;7067;51.832;8.296;2022-08-20T13:55:16;7.13;;;4.05;;
13985;SDS011;7067;51.832;8.296;2022-08-20T13:57:43;5.38;;;3.65;;
13985;SDS011;7067;51.832;8.296;2022-08-20T14:00:11;4.10;;;3.50;;
13985;SDS011;7067;51.832;8.296;2022-08-20T14:02:40;8.85;;;4.50;;
13985;SDS011;7067;51.832;8.296;2022-08-20T14:05:06;10.75;;;5.88;;
13985;SDS011;7067;51.832;8.296;2022-08-20T14:07:32;6.82;;;6.20;;
13985;SDS011;7067;51.832;8.296;2022-08-20T14:09:59;9.77;;;6.82;;
13985;SDS011;7067;51.832;8.296;2022-08-20T14:12:26;7.97;;;6.97;;
13985;SDS011;7067;51.832;8.296;2022-08-20T14:14:52;8.30;;;7.22;;
13985;SDS011;7067;51.832;8.296;2022-08-20T14:17:31;11.93;;;7.18;;
13985;SDS011;7067;51.832;8.296;2022-08-20T14:20:06;12.18;;;7.50;;
13985;SDS011;7067;51.832;8.296;2022-08-20T14:22:39;7.13;;;6.10;;
13985;SDS011;7067;51.832;8.296;2022-08-20T14:25:05;7.22;;;6.07;;
13985;SDS011;7067;51.832;8.296;2022-08-20T14:27:33;8.82;;;6.80;;
13985;SDS011;7067;51.832;8.296;2022-08-20T14:29:58;7.53;;;6.78;;
13985;SDS011;7067;51.832;8.296;2022-08-20T14:32:25;12.40;;;7.85;;
13985;SDS011;7067;51.832;8.296;2022-08-20T14:34:51;11.27;;;8.45;;
13985;SDS011;7067;51.832;8.296;2022-08-20T14:37:18;8.40;;;7.72;;
13985;SDS011;7067;51.832;8.296;2022-08-20T14:39:52;8.63;;;7.65;;
13985;SDS011;7067;51.832;8.296;2022-08-20T14:42:18;8.40;;;5.97;;
13985;SDS011;7067;51.832;8.296;2022-08-20T14:44:46;8.25;;;6.40;;
13985;SDS011;7067;51.832;8.296;2022-08-20T14:49:39;7.95;;;5.55;;
13985;SDS011;7067;51.832;8.296;2022-08-20T14:52:05;6.38;;;5.78;;
13985;SDS011;7067;51.832;8.296;2022-08-20T14:54:30;6.47;;;5.97;;
13985;SDS011;7067;51.832;8.296;2022-08-20T14:56:58;7.70;;;6.60;;
13985;SDS011;7067;51.832;8.296;2022-08-20T14:59:24;8.27;;;6.47;;
13985;SDS011;7067;51.832;8.296;2022-08-20T15:01:49;9.45;;;5.93;;